Time;durP1;ratioP1;P1;durP2;ratioP2;P2;SDS_P1;SDS_P2;PMS_P1;PMS_P2;Temp;Humidity;BMP_temperature;BMP_pressure;BME280_temperature;BME280_humidity;BME280_pressure;Samples;Min_cycle;Max_cycle;Signal;HPM_P1;HPM_P2
2022/07/06 00:01:45;;;;;;;16.60;5.82;;;12.70;99.90;;;;;;4957076;28;20047;-71
2022/07/06 00:04:11;;;;;;;20.10;5.82;;;12.70;99.90;;;;;;4955089;28;20054;-71
2022/07/06 00:06:36;;;;;;;29.15;6.47;;;12.60;99.90;;;;;;4960646;28;20082;-71
2022/07/06 00:09:03;;;;;;;19.77;6.50;;;12.60;99.90;;;;;;4962500;28;20041;-71
2022/07/06 00:11:29;;;;;;;19.45;6.30;;;12.60;99.90;;;;;;4957543;28;20043;-73
2022/07/06 00:13:56;;;;;;;23.95;6.78;;;12.80;99.90;;;;;;4960061;28;20046;-71
2022/07/06 00:16:22;;;;;;;24.52;7.57;;;12.80;99.90;;;;;;4961157;28;20082;-71
2022/07/06 00:18:49;;;;;;;26.85;7.22;;;12.70;99.90;;;;;;4959809;28;20053;-71
2022/07/06 00:21:14;;;;;;;24.50;6.70;;;12.70;99.90;;;;;;4953574;28;20137;-71
2022/07/06 00:23:40;;;;;;;15.85;6.50;;;12.80;99.90;;;;;;4945006;28;20150;-72
2022/07/06 00:26:06;;;;;;;26.05;7.43;;;12.80;99.90;;;;;;4958609;28;20088;-71
2022/07/06 00:28:31;;;;;;;18.30;6.25;;;12.80;99.90;;;;;;4970062;28;20042;-72
2022/07/06 00:30:57;;;;;;;17.73;6.72;;;12.80;99.90;;;;;;4961305;28;20039;-71
2022/07/06 00:33:23;;;;;;;20.20;6.38;;;12.80;99.90;;;;;;4954587;28;20038;-72
2022/07/06 00:35:49;;;;;;;16.08;6.60;;;12.90;99.90;;;;;;4968366;28;20045;-71
2022/07/06 00:38:15;;;;;;;15.30;6.53;;;12.90;99.90;;;;;;4968092;28;20501;-71
2022/07/06 00:40:40;;;;;;;18.80;7.35;;;12.90;99.90;;;;;;4964084;28;20042;-71
2022/07/06 00:43:06;;;;;;;19.30;7.07;;;12.90;99.90;;;;;;4955665;28;20046;-70
2022/07/06 00:45:32;;;;;;;16.33;6.90;;;12.90;99.90;;;;;;4958431;28;20080;-72
2022/07/06 00:47:57;;;;;;;17.80;7.22;;;12.90;99.90;;;;;;4958958;28;20427;-71
2022/07/06 00:50:25;;;;;;;19.77;7.00;;;13.00;99.90;;;;;;4957701;28;20035;-71
2022/07/06 00:52:55;;;;;;;23.88;7.60;;;12.80;99.90;;;;;;4946176;28;20096;-71
2022/07/06 00:55:24;;;;;;;21.50;7.88;;;12.90;99.90;;;;;;4982136;28;20129;-73
2022/07/06 00:57:50;;;;;;;21.73;8.15;;;12.90;99.90;;;;;;4965986;28;20102;-72
2022/07/06 01:00:19;;;;;;;24.58;8.20;;;12.90;99.90;;;;;;4955729;28;20767;-73
2022/07/06 01:02:45;;;;;;;22.58;8.23;;;12.90;99.90;;;;;;4983464;28;20042;-73
2022/07/06 01:05:13;;;;;;;25.15;9.02;;;13.00;99.90;;;;;;4960200;28;20057;-73
2022/07/06 01:07:40;;;;;;;20.35;7.88;;;12.90;99.90;;;;;;4959539;28;20057;-72
2022/07/06 01:10:08;;;;;;;26.25;7.95;;;12.90;99.90;;;;;;4963593;28;20038;-73
2022/07/06 01:12:37;;;;;;;22.35;8.77;;;12.90;99.90;;;;;;4976213;28;20466;-72
2022/07/06 01:15:05;;;;;;;20.60;7.78;;;13.00;99.90;;;;;;4960207;28;20428;-73
2022/07/06 01:17:32;;;;;;;21.88;8.02;;;13.00;99.90;;;;;;4958601;28;20049;-74
2022/07/06 01:19:57;;;;;;;21.67;8.02;;;13.00;99.90;;;;;;4960599;28;20699;-74
2022/07/06 01:22:23;;;;;;;20.25;8.23;;;12.90;99.90;;;;;;4958318;28;20038;-73
2022/07/06 01:24:49;;;;;;;24.88;8.15;;;13.00;99.90;;;;;;4958613;28;20441;-73
2022/07/06 01:27:15;;;;;;;19.30;7.28;;;13.00;99.90;;;;;;4962823;28;20505;-73
2022/07/06 01:29:40;;;;;;;20.05;7.30;;;13.00;99.90;;;;;;4959671;28;20039;-73
2022/07/06 01:32:06;;;;;;;21.35;7.70;;;13.00;99.90;;;;;;4960910;28;20473;-72
2022/07/06 01:34:32;;;;;;;22.58;7.95;;;13.00;99.90;;;;;;4959185;28;20065;-72
2022/07/06 01:36:57;;;;;;;25.02;8.45;;;13.00;99.90;;;;;;4973076;28;20049;-73
2022/07/06 01:39:23;;;;;;;20.17;7.32;;;13.00;99.90;;;;;;4957108;28;20075;-73
2022/07/06 01:41:49;;;;;;;26.02;8.00;;;13.00;99.90;;;;;;4958639;28;20038;-73
2022/07/06 01:44:14;;;;;;;22.08;8.57;;;13.10;99.90;;;;;;4946855;28;20086;-73
2022/07/06 01:46:40;;;;;;;26.70;8.60;;;13.00;99.90;;;;;;4962922;28;20058;-74
2022/07/06 01:49:06;;;;;;;17.92;8.05;;;13.10;99.90;;;;;;4960576;28;20441;-74
2022/07/06 01:51:32;;;;;;;20.30;7.80;;;13.00;99.90;;;;;;4961360;28;20038;-74
2022/07/06 01:53:58;;;;;;;27.38;8.38;;;13.10;99.90;;;;;;4955766;28;20172;-74
2022/07/06 01:56:23;;;;;;;24.17;8.60;;;13.10;99.90;;;;;;4941433;28;20042;-74
2022/07/06 01:58:49;;;;;;;28.15;8.68;;;13.10;99.90;;;;;;4960041;28;20042;-73
2022/07/06 02:01:17;;;;;;;27.05;9.20;;;13.00;99.90;;;;;;4943342;28;20104;-74
2022/07/06 02:03:43;;;;;;;22.90;8.48;;;13.00;99.90;;;;;;4950312;28;20052;-74
2022/07/06 02:06:10;;;;;;;27.83;8.15;;;13.00;99.90;;;;;;4958585;28;20121;-73
2022/07/06 02:08:36;;;;;;;22.67;7.97;;;13.10;99.90;;;;;;4958614;28;20039;-72
2022/07/06 02:11:03;;;;;;;25.08;8.35;;;13.00;99.90;;;;;;4958333;28;20049;-72
2022/07/06 02:13:29;;;;;;;23.73;8.68;;;13.10;99.90;;;;;;4964385;28;20035;-71
2022/07/06 02:15:55;;;;;;;29.10;9.95;;;13.10;99.90;;;;;;4959260;28;20041;-71
2022/07/06 02:18:20;;;;;;;24.88;8.23;;;13.10;99.90;;;;;;4959921;28;20035;-71
2022/07/06 02:20:46;;;;;;;27.38;8.02;;;13.10;99.90;;;;;;4978094;28;20046;-71
2022/07/06 02:23:12;;;;;;;22.65;8.70;;;13.10;99.90;;;;;;4968408;28;20505;-71
2022/07/06 02:25:37;;;;;;;20.70;8.45;;;13.10;99.90;;;;;;4960622;28;20050;-71
2022/07/06 02:28:03;;;;;;;30.85;8.90;;;13.10;99.90;;;;;;4954799;28;20076;-72
2022/07/06 02:30:29;;;;;;;23.15;7.78;;;13.10;99.90;;;;;;4961551;28;20390;-72
2022/07/06 02:32:54;;;;;;;27.30;8.52;;;13.20;99.90;;;;;;4962188;28;20061;-73
2022/07/06 02:35:20;;;;;;;24.13;8.30;;;13.20;99.90;;;;;;4961336;28;21650;-72
2022/07/06 02:37:45;;;;;;;18.83;7.35;;;13.20;99.90;;;;;;4952738;28;20253;-74
2022/07/06 02:40:11;;;;;;;20.23;7.05;;;13.20;99.90;;;;;;4953807;28;20073;-72
2022/07/06 02:42:37;;;;;;;17.85;6.75;;;13.20;99.90;;;;;;4949086;28;20062;-73
2022/07/06 02:45:03;;;;;;;21.50;6.93;;;13.20;99.90;;;;;;4959799;28;20034;-73
2022/07/06 02:47:29;;;;;;;20.17;6.93;;;13.20;99.90;;;;;;4960385;28;20082;-73
2022/07/06 02:49:55;;;;;;;18.55;6.70;;;13.20;99.90;;;;;;4957456;28;20053;-73
2022/07/06 02:52:20;;;;;;;23.13;6.85;;;13.30;99.90;;;;;;4953810;28;20069;-73
2022/07/06 02:54:46;;;;;;;21.05;6.30;;;13.30;99.90;;;;;;4957800;28;20042;-72
2022/07/06 02:57:12;;;;;;;18.73;7.18;;;13.30;99.90;;;;;;4956745;28;20053;-73
2022/07/06 02:59:38;;;;;;;21.00;6.95;;;13.30;99.90;;;;;;4946357;28;20172;-73
2022/07/06 03:02:06;;;;;;;24.70;7.10;;;13.30;99.90;;;;;;4958418;28;21198;-72
2022/07/06 03:04:32;;;;;;;24.30;7.32;;;13.20;99.90;;;;;;4957205;28;20067;-71
2022/07/06 03:06:58;;;;;;;21.30;6.90;;;13.20;99.90;;;;;;4957916;28;20066;-73
2022/07/06 03:09:24;;;;;;;23.90;6.70;;;13.20;99.90;;;;;;4940169;28;20039;-72
2022/07/06 03:11:49;;;;;;;21.45;6.20;;;13.20;99.90;;;;;;4955088;28;20081;-73
2022/07/06 03:14:15;;;;;;;17.67;6.20;;;13.20;99.90;;;;;;4955373;28;20030;-72
2022/07/06 03:16:40;;;;;;;17.70;6.32;;;13.20;99.90;;;;;;4935949;28;20042;-73
2022/07/06 03:19:06;;;;;;;18.63;5.75;;;13.20;99.90;;;;;;4957355;28;20069;-74
2022/07/06 03:21:32;;;;;;;18.85;5.95;;;13.20;99.90;;;;;;4956320;28;20711;-73
2022/07/06 03:23:59;;;;;;;18.10;6.13;;;13.20;99.90;;;;;;4954962;28;20133;-74
2022/07/06 03:26:24;;;;;;;16.55;5.78;;;13.30;99.90;;;;;;4956029;28;20125;-74
2022/07/06 03:28:50;;;;;;;19.58;5.68;;;13.30;99.90;;;;;;4956161;28;20429;-73
2022/07/06 03:31:16;;;;;;;21.20;6.40;;;13.30;99.90;;;;;;4952804;28;20038;-73
2022/07/06 03:33:41;;;;;;;21.85;6.57;;;13.30;99.90;;;;;;4957222;28;20155;-73
2022/07/06 03:36:07;;;;;;;22.63;6.20;;;13.30;99.90;;;;;;4957735;28;20038;-72
2022/07/06 03:38:34;;;;;;;16.20;5.95;;;13.30;99.90;;;;;;4959778;28;20113;-72
2022/07/06 03:40:59;;;;;;;19.67;6.20;;;13.30;99.90;;;;;;4949614;28;20118;-73
2022/07/06 03:43:25;;;;;;;17.30;5.95;;;13.40;99.90;;;;;;4944714;28;20042;-72
2022/07/06 03:45:50;;;;;;;19.25;5.93;;;13.30;99.90;;;;;;4955169;28;20469;-71
2022/07/06 03:48:16;;;;;;;20.67;6.07;;;13.30;99.90;;;;;;4981041;28;20039;-71
2022/07/06 03:50:42;;;;;;;16.17;5.80;;;13.30;99.90;;;;;;4959362;28;20474;-72
2022/07/06 03:53:07;;;;;;;16.10;5.90;;;13.30;99.90;;;;;;4951676;28;20501;-71
2022/07/06 03:55:33;;;;;;;23.08;6.60;;;13.40;99.90;;;;;;4955617;28;20066;-72
2022/07/06 03:57:58;;;;;;;15.63;6.28;;;13.40;99.90;;;;;;4954555;28;20051;-71
2022/07/06 04:00:24;;;;;;;15.73;5.93;;;13.30;99.90;;;;;;4959946;28;20039;-72
2022/07/06 04:02:50;;;;;;;18.95;5.90;;;13.40;99.90;;;;;;4952805;28;20453;-72
2022/07/06 04:05:20;;;;;;;21.42;6.03;;;13.40;99.90;;;;;;4957961;28;20031;-72
2022/07/06 04:07:49;;;;;;;17.90;6.07;;;13.40;99.90;;;;;;4957474;28;20076;-72
2022/07/06 04:10:18;;;;;;;19.15;5.68;;;13.40;99.90;;;;;;4958295;28;20063;-72
2022/07/06 04:12:44;;;;;;;21.25;5.53;;;13.50;99.90;;;;;;4963293;28;20074;-72
2022/07/06 04:15:11;;;;;;;20.90;6.38;;;13.40;99.90;;;;;;4959167;28;20046;-72
2022/07/06 04:17:53;;;;;;;16.20;5.80;;;13.50;99.90;;;;;;4945162;28;20065;-73
2022/07/06 04:20:23;;;;;;;25.90;5.70;;;13.50;99.90;;;;;;4954351;28;20034;-72
2022/07/06 04:22:50;;;;;;;24.52;5.38;;;13.50;99.90;;;;;;4958271;28;20305;-74
2022/07/06 04:25:15;;;;;;;18.20;5.15;;;13.50;99.90;;;;;;4962515;28;20042;-74
2022/07/06 04:27:41;;;;;;;14.25;5.30;;;13.50;99.90;;;;;;4947848;28;20046;-73
2022/07/06 04:30:08;;;;;;;21.35;5.80;;;13.50;99.90;;;;;;4955253;28;20081;-74
2022/07/06 04:32:34;;;;;;;21.42;5.30;;;13.50;99.90;;;;;;4960175;28;20133;-74
2022/07/06 04:35:00;;;;;;;21.50;6.07;;;13.50;99.90;;;;;;4957654;28;20468;-73
2022/07/06 04:37:26;;;;;;;13.75;5.25;;;13.60;99.90;;;;;;4958785;28;20414;-74
2022/07/06 04:39:52;;;;;;;27.70;6.05;;;13.60;99.90;;;;;;4961190;28;20058;-74
2022/07/06 04:42:18;;;;;;;21.83;6.22;;;13.60;99.90;;;;;;4961782;28;20038;-74
2022/07/06 04:44:43;;;;;;;23.10;6.15;;;13.70;99.90;;;;;;4957323;28;20071;-74
2022/07/06 04:47:09;;;;;;;19.92;5.88;;;13.70;99.90;;;;;;4955762;28;20039;-75
2022/07/06 04:49:35;;;;;;;23.13;6.07;;;13.80;99.90;;;;;;4960818;28;20486;-74
2022/07/06 04:52:00;;;;;;;24.02;5.57;;;13.90;99.90;;;;;;4957720;28;20042;-74
2022/07/06 04:54:26;;;;;;;24.08;5.28;;;14.00;99.90;;;;;;4956009;28;20042;-74
2022/07/06 04:56:51;;;;;;;18.42;5.28;;;14.00;99.90;;;;;;4954329;28;20462;-74
2022/07/06 04:59:17;;;;;;;17.25;5.10;;;14.10;99.90;;;;;;4960856;28;20038;-74
2022/07/06 05:01:42;;;;;;;17.48;4.57;;;14.10;99.90;;;;;;4960199;28;20040;-74
2022/07/06 05:04:08;;;;;;;15.55;4.70;;;14.20;99.90;;;;;;4955913;28;20149;-74
2022/07/06 05:06:34;;;;;;;17.45;4.20;;;14.30;99.90;;;;;;4951581;28;20047;-73
2022/07/06 05:09:00;;;;;;;15.05;4.15;;;14.30;99.90;;;;;;4951240;28;20413;-74
2022/07/06 05:11:26;;;;;;;15.02;4.65;;;14.40;99.90;;;;;;4957620;28;20478;-72
2022/07/06 05:13:52;;;;;;;14.05;4.35;;;14.40;99.90;;;;;;4964752;28;20504;-74
2022/07/06 05:16:18;;;;;;;13.43;4.40;;;14.50;99.90;;;;;;4954389;28;20222;-74
2022/07/06 05:18:44;;;;;;;13.80;4.45;;;14.40;99.90;;;;;;4966144;28;20043;-74
2022/07/06 05:21:09;;;;;;;11.20;4.00;;;14.40;99.90;;;;;;4972487;28;20053;-73
2022/07/06 05:23:35;;;;;;;21.98;4.00;;;14.50;99.90;;;;;;4948927;28;20043;-74
2022/07/06 05:26:00;;;;;;;20.10;4.25;;;14.50;99.90;;;;;;4956998;28;20074;-74
2022/07/06 05:28:26;;;;;;;15.30;3.42;;;14.50;99.90;;;;;;4980326;28;20121;-74
2022/07/06 05:30:52;;;;;;;9.82;3.40;;;14.60;99.90;;;;;;4962284;28;20234;-72
2022/07/06 05:33:17;;;;;;;12.48;3.35;;;14.70;99.90;;;;;;4964213;28;20042;-75
2022/07/06 05:35:43;;;;;;;15.40;3.20;;;14.80;99.90;;;;;;4961902;28;20042;-75
2022/07/06 05:38:09;;;;;;;16.80;2.97;;;14.90;99.90;;;;;;4956977;28;20042;-72
2022/07/06 05:40:34;;;;;;;14.80;2.85;;;15.00;99.90;;;;;;4959918;28;20517;-75
2022/07/06 05:43:00;;;;;;;13.65;2.83;;;15.00;99.90;;;;;;4963376;28;20043;-72
2022/07/06 05:45:25;;;;;;;12.52;2.58;;;15.10;99.90;;;;;;4963761;28;20034;-72
2022/07/06 05:50:35;;;;;;;13.52;2.70;;;15.30;99.90;;;;;;4948055;28;20117;-71
2022/07/06 05:53:03;;;;;;;13.60;3.47;;;15.40;99.90;;;;;;4959775;28;20055;-74
2022/07/06 05:55:29;;;;;;;11.30;2.85;;;15.40;99.90;;;;;;4938084;28;20401;-74
2022/07/06 05:57:55;;;;;;;19.75;3.15;;;15.60;99.90;;;;;;4956907;28;20508;-74
2022/07/06 06:00:22;;;;;;;12.30;2.45;;;15.70;99.90;;;;;;4956409;28;20039;-75
2022/07/06 06:02:48;;;;;;;15.43;2.88;;;15.60;99.90;;;;;;4956286;28;20053;-70
2022/07/06 06:05:14;;;;;;;14.50;2.70;;;15.60;99.90;;;;;;4960397;28;20043;-71
2022/07/06 06:07:40;;;;;;;18.42;3.15;;;15.50;99.90;;;;;;4957281;28;20387;-75
2022/07/06 06:10:11;;;;;;;14.75;2.72;;;15.40;99.90;;;;;;4964334;28;20128;-73
2022/07/06 06:12:37;;;;;;;8.68;2.40;;;15.30;99.90;;;;;;4960986;28;20045;-71
2022/07/06 06:15:04;;;;;;;11.52;2.10;;;15.30;99.90;;;;;;4956222;28;20396;-70
2022/07/06 06:17:30;;;;;;;12.20;2.83;;;15.40;99.90;;;;;;4963851;28;20517;-72
2022/07/06 06:19:56;;;;;;;9.82;2.42;;;15.40;99.90;;;;;;4954651;28;20038;-73
2022/07/06 06:22:21;;;;;;;13.40;2.50;;;15.40;99.90;;;;;;4938475;28;20399;-72
2022/07/06 06:24:47;;;;;;;10.63;2.17;;;15.40;99.90;;;;;;4961456;28;21440;-74
2022/07/06 06:27:13;;;;;;;11.38;2.58;;;15.40;99.90;;;;;;4936550;29;20047;-73
2022/07/06 06:29:38;;;;;;;41.78;3.78;;;15.40;99.90;;;;;;4960435;28;20495;-74
2022/07/06 06:32:05;;;;;;;11.75;1.92;;;15.30;99.90;;;;;;4948069;28;20055;-70
2022/07/06 06:34:31;;;;;;;9.95;2.35;;;15.30;99.90;;;;;;4955179;28;20410;-72
2022/07/06 06:36:57;;;;;;;11.02;2.65;;;15.30;99.90;;;;;;4965193;28;20070;-69
2022/07/06 06:39:23;;;;;;;12.20;2.00;;;15.40;99.90;;;;;;4938882;28;20336;-75
2022/07/06 06:41:48;;;;;;;8.32;1.98;;;15.40;99.90;;;;;;4955464;28;20462;-70
2022/07/06 06:44:14;;;;;;;13.73;2.20;;;15.30;99.90;;;;;;4956436;28;20068;-72
2022/07/06 06:46:40;;;;;;;9.73;2.40;;;15.30;99.90;;;;;;4955169;28;20078;-74
2022/07/06 06:49:06;;;;;;;13.13;2.17;;;15.40;99.90;;;;;;4956734;28;20372;-69
2022/07/06 06:51:32;;;;;;;8.48;2.33;;;15.40;99.90;;;;;;4957243;28;20041;-72
2022/07/06 06:53:58;;;;;;;7.03;2.50;;;15.50;99.90;;;;;;4970949;28;20093;-73
2022/07/06 06:56:23;;;;;;;10.60;2.33;;;15.50;99.90;;;;;;4971212;28;20038;-73
2022/07/06 06:58:49;;;;;;;9.02;2.33;;;15.40;99.90;;;;;;4953840;28;20582;-72
2022/07/06 07:01:15;;;;;;;10.43;1.90;;;15.40;99.90;;;;;;4953855;28;20060;-68
2022/07/06 07:03:40;;;;;;;8.30;1.90;;;15.40;99.90;;;;;;4955957;28;20054;-72
2022/07/06 07:06:06;;;;;;;9.30;1.52;;;15.40;99.90;;;;;;4956082;28;20042;-71
2022/07/06 07:08:32;;;;;;;10.63;2.00;;;15.60;99.90;;;;;;4955993;28;20081;-70
2022/07/06 07:10:58;;;;;;;10.68;1.95;;;15.70;99.90;;;;;;4956563;28;20485;-68
2022/07/06 07:13:24;;;;;;;3.72;1.90;;;15.80;99.90;;;;;;4956077;28;20050;-71
2022/07/06 07:15:49;;;;;;;14.95;1.88;;;15.90;99.90;;;;;;4971628;28;20166;-73
2022/07/06 07:18:15;;;;;;;8.13;1.85;;;16.10;99.90;;;;;;4955483;28;20078;-74
2022/07/06 07:20:40;;;;;;;8.90;1.88;;;16.10;99.90;;;;;;4953467;28;20046;-72
2022/07/06 07:23:06;;;;;;;7.22;1.83;;;16.10;99.90;;;;;;4955741;28;20043;-71
2022/07/06 07:25:32;;;;;;;10.70;2.10;;;16.20;99.90;;;;;;4955849;28;20173;-68
2022/07/06 07:27:58;;;;;;;5.40;1.60;;;16.30;99.90;;;;;;4944164;29;20130;-72
2022/07/06 07:30:23;;;;;;;8.48;1.60;;;16.50;99.90;;;;;;4936494;29;20035;-70
2022/07/06 07:32:49;;;;;;;5.18;1.77;;;16.70;99.90;;;;;;4936734;29;20054;-72
2022/07/06 07:35:15;;;;;;;12.52;1.98;;;16.90;99.90;;;;;;4937526;29;20054;-72
2022/07/06 07:37:40;;;;;;;7.13;2.10;;;17.00;99.90;;;;;;4952125;28;20068;-70
2022/07/06 07:40:06;;;;;;;6.43;1.77;;;17.10;99.90;;;;;;4952127;28;20086;-68
2022/07/06 07:42:32;;;;;;;7.60;1.58;;;17.20;99.90;;;;;;4960344;28;20129;-72
2022/07/06 07:44:58;;;;;;;10.68;1.70;;;17.20;99.90;;;;;;4939772;28;20522;-69
2022/07/06 07:47:24;;;;;;;6.88;1.90;;;17.40;99.90;;;;;;4956110;28;20037;-69
2022/07/06 07:49:49;;;;;;;9.50;1.90;;;17.50;99.90;;;;;;4952906;28;20125;-70
2022/07/06 07:52:15;;;;;;;10.07;1.80;;;17.60;99.90;;;;;;4953530;28;20046;-73
2022/07/06 07:54:41;;;;;;;12.27;2.03;;;17.50;99.90;;;;;;4958838;28;20031;-70
2022/07/06 07:57:06;;;;;;;9.18;2.00;;;17.40;99.90;;;;;;4955158;28;20111;-70
2022/07/06 07:59:32;;;;;;;6.03;1.60;;;17.20;99.90;;;;;;4954316;28;20042;-74
2022/07/06 08:01:58;;;;;;;7.90;1.88;;;16.90;99.90;;;;;;4951699;28;20046;-70
2022/07/06 08:04:24;;;;;;;7.95;2.10;;;16.70;99.90;;;;;;4951120;28;20034;-69
2022/07/06 08:06:50;;;;;;;9.10;2.33;;;16.70;99.90;;;;;;4954141;28;20049;-74
2022/07/06 08:09:16;;;;;;;7.82;1.63;;;16.70;99.90;;;;;;4972016;28;20125;-70
2022/07/06 08:11:42;;;;;;;8.63;1.85;;;16.70;99.90;;;;;;4970721;28;20047;-70
2022/07/06 08:14:08;;;;;;;11.85;1.98;;;16.70;99.90;;;;;;4959139;28;20038;-72
2022/07/06 08:16:34;;;;;;;8.32;1.70;;;16.60;99.90;;;;;;4955263;28;20046;-71
2022/07/06 08:18:59;;;;;;;10.82;2.20;;;16.70;99.90;;;;;;4954351;28;20047;-71
2022/07/06 08:21:25;;;;;;;11.15;1.80;;;16.70;99.90;;;;;;4955496;28;20058;-72
2022/07/06 08:23:52;;;;;;;11.77;1.75;;;16.80;99.90;;;;;;4944483;29;20138;-74
2022/07/06 08:26:17;;;;;;;11.52;2.40;;;16.80;99.90;;;;;;4934645;29;20039;-73
2022/07/06 08:28:43;;;;;;;6.30;1.40;;;16.70;99.90;;;;;;4950935;29;20086;-72
2022/07/06 08:31:09;;;;;;;8.57;1.77;;;16.50;99.90;;;;;;4953159;28;20031;-68
2022/07/06 08:33:34;;;;;;;5.68;1.42;;;16.40;99.90;;;;;;4970234;28;20129;-71
2022/07/06 08:36:00;;;;;;;6.65;1.50;;;16.20;99.90;;;;;;4960115;28;20054;-70
2022/07/06 08:38:25;;;;;;;10.27;1.73;;;16.20;99.90;;;;;;4953024;28;20039;-69
2022/07/06 08:40:51;;;;;;;8.07;1.60;;;16.40;99.90;;;;;;4954168;28;20043;-71
2022/07/06 08:43:17;;;;;;;8.13;1.30;;;16.50;99.90;;;;;;4953401;28;20039;-74
2022/07/06 08:45:44;;;;;;;8.73;1.40;;;16.70;99.90;;;;;;4948738;28;20050;-69
2022/07/06 08:48:11;;;;;;;10.50;1.73;;;17.00;99.90;;;;;;4952986;28;20097;-71
2022/07/06 08:50:38;;;;;;;8.40;1.60;;;17.30;99.90;;;;;;4936595;29;20535;-72
2022/07/06 08:53:04;;;;;;;10.25;1.35;;;17.50;99.90;;;;;;4947458;28;20035;-70
2022/07/06 08:55:30;;;;;;;6.68;1.38;;;17.70;99.90;;;;;;4958144;28;20078;-69
2022/07/06 08:57:57;;;;;;;3.42;0.90;;;18.00;99.90;;;;;;4956921;28;20065;-71
2022/07/06 09:00:27;;;;;;;10.15;1.50;;;18.20;99.90;;;;;;4951362;28;20050;-71
2022/07/06 09:02:56;;;;;;;5.93;1.70;;;18.40;99.90;;;;;;4956412;28;20401;-74
2022/07/06 09:05:23;;;;;;;5.40;1.60;;;18.20;99.90;;;;;;4975966;28;20035;-71
2022/07/06 09:07:52;;;;;;;5.70;1.67;;;17.90;99.90;;;;;;4955550;28;20042;-69
2022/07/06 09:10:20;;;;;;;6.05;1.67;;;17.60;99.90;;;;;;4957410;28;20062;-71
2022/07/06 09:12:46;;;;;;;5.88;1.70;;;17.30;99.90;;;;;;4958141;28;20050;-73
2022/07/06 09:15:12;;;;;;;3.75;1.50;;;17.20;99.90;;;;;;4957937;28;20409;-72
2022/07/06 09:17:39;;;;;;;10.38;1.70;;;17.10;99.90;;;;;;4957916;28;20047;-71
2022/07/06 09:20:10;;;;;;;8.98;1.65;;;17.10;99.90;;;;;;4952596;28;20138;-67
2022/07/06 09:22:36;;;;;;;5.57;1.40;;;17.30;99.90;;;;;;4957931;28;20524;-71
2022/07/06 09:25:09;;;;;;;11.77;1.85;;;17.60;99.90;;;;;;4958028;28;20043;-70
2022/07/06 09:27:39;;;;;;;8.05;1.60;;;17.90;99.90;;;;;;4956803;28;20050;-72
2022/07/06 09:30:07;;;;;;;4.30;1.30;;;18.00;99.90;;;;;;4941148;28;20051;-70
2022/07/06 09:32:39;;;;;;;7.85;1.73;;;18.10;99.90;;;;;;4957709;28;20038;-72
2022/07/06 09:35:05;;;;;;;5.18;1.90;;;18.10;99.90;;;;;;4957839;28;20141;-70
2022/07/06 09:37:31;;;;;;;4.55;1.90;;;18.00;99.90;;;;;;4954013;28;20465;-73
2022/07/06 09:39:56;;;;;;;7.47;1.70;;;17.80;99.90;;;;;;4940370;29;20141;-71
2022/07/06 09:42:26;;;;;;;4.38;1.88;;;17.70;99.90;;;;;;4938500;29;20039;-72
2022/07/06 09:44:53;;;;;;;6.40;1.42;;;17.60;99.90;;;;;;4948966;28;20533;-71
2022/07/06 09:47:19;;;;;;;6.28;1.60;;;17.70;99.90;;;;;;4956640;28;20511;-68
2022/07/06 09:49:45;;;;;;;7.15;1.50;;;17.90;99.90;;;;;;4975616;28;20513;-71
2022/07/06 09:52:12;;;;;;;7.63;1.73;;;18.10;99.90;;;;;;4957079;28;20413;-70
2022/07/06 09:54:38;;;;;;;5.55;1.48;;;18.30;99.90;;;;;;4954183;28;20495;-71
2022/07/06 09:57:05;;;;;;;11.32;1.70;;;18.30;99.90;;;;;;4957340;28;20054;-69
2022/07/06 09:59:32;;;;;;;7.18;1.38;;;18.20;99.90;;;;;;4957650;28;20078;-72
2022/07/06 10:02:02;;;;;;;9.77;1.73;;;18.10;99.90;;;;;;4956495;28;20074;-70
2022/07/06 10:04:28;;;;;;;4.50;1.50;;;18.00;99.90;;;;;;4957650;28;20058;-70
2022/07/06 10:06:56;;;;;;;7.90;1.80;;;17.90;99.90;;;;;;4973727;28;20138;-71
2022/07/06 10:09:24;;;;;;;5.85;1.50;;;17.70;99.90;;;;;;4955295;28;20047;-68
2022/07/06 10:11:54;;;;;;;8.35;1.77;;;17.70;99.90;;;;;;4956957;28;20106;-69
2022/07/06 10:14:30;;;;;;;7.35;1.60;;;17.80;99.90;;;;;;4956978;28;20043;-71
2022/07/06 10:16:58;;;;;;;7.60;1.90;;;18.20;99.90;;;;;;4956056;28;20035;-72
2022/07/06 10:19:25;;;;;;;4.85;1.30;;;18.50;99.90;;;;;;4941036;28;20105;-72
2022/07/06 10:21:51;;;;;;;7.00;1.75;;;18.70;99.90;;;;;;4956570;28;20061;-71
2022/07/06 10:24:18;;;;;;;5.70;1.40;;;18.90;99.90;;;;;;4957342;28;20101;-70
2022/07/06 10:26:46;;;;;;;3.75;1.45;;;19.00;99.90;;;;;;4956496;28;20490;-71
2022/07/06 10:29:11;;;;;;;3.67;1.27;;;19.20;99.90;;;;;;4951073;28;20488;-70
2022/07/06 10:31:42;;;;;;;3.38;1.40;;;19.10;99.90;;;;;;4957072;28;20046;-69
2022/07/06 10:34:11;;;;;;;3.50;1.30;;;19.00;99.90;;;;;;4957347;28;20034;-67
2022/07/06 10:36:41;;;;;;;10.00;1.50;;;18.90;99.90;;;;;;4957352;28;20098;-71
2022/07/06 10:41:52;;;;;;;9.40;2.10;;;18.70;99.90;;;;;;4956739;28;20054;-72
2022/07/06 10:44:21;;;;;;;6.90;1.80;;;18.60;99.90;;;;;;4956972;28;20034;-73
2022/07/06 10:46:57;;;;;;;5.57;1.88;;;18.50;99.90;;;;;;4956344;28;20053;-73
2022/07/06 10:49:25;;;;;;;5.60;1.70;;;18.30;99.90;;;;;;4956016;28;20118;-72
2022/07/06 10:51:51;;;;;;;10.73;2.28;;;18.20;99.90;;;;;;4957613;28;20058;-70
2022/07/06 10:54:18;;;;;;;6.38;1.67;;;18.40;99.90;;;;;;4957031;28;20042;-70
2022/07/06 10:56:50;;;;;;;7.05;1.75;;;18.60;99.90;;;;;;4956460;28;20055;-71
2022/07/06 10:59:18;;;;;;;8.90;1.77;;;18.70;99.90;;;;;;4956262;28;20533;-71
2022/07/06 11:02:10;;;;;;;3.35;1.60;;;19.10;99.90;;;;;;4956752;28;20512;-72
2022/07/06 11:04:36;;;;;;;7.93;1.80;;;19.30;99.90;;;;;;4956028;28;20053;-69
2022/07/06 11:07:10;;;;;;;7.13;1.50;;;19.20;99.90;;;;;;4956453;28;20043;-68
2022/07/06 11:09:36;;;;;;;6.63;1.80;;;19.00;99.90;;;;;;4956684;28;20504;-68
2022/07/06 11:12:15;;;;;;;11.05;1.70;;;18.90;99.90;;;;;;4956626;28;20401;-70
2022/07/06 11:14:40;;;;;;;11.60;1.88;;;18.70;99.90;;;;;;4946086;28;20401;-71
2022/07/06 11:17:10;;;;;;;8.38;1.60;;;18.50;99.90;;;;;;4937581;29;20134;-71
2022/07/06 11:19:36;;;;;;;8.77;1.90;;;18.50;99.90;;;;;;4969279;28;20057;-71
2022/07/06 11:22:09;;;;;;;8.77;1.90;;;18.60;99.90;;;;;;4936579;29;20047;-73
2022/07/06 11:24:40;;;;;;;5.07;1.67;;;18.60;99.90;;;;;;4926994;28;20039;-69
2022/07/06 11:27:06;;;;;;;12.43;2.20;;;18.80;99.90;;;;;;4953001;28;20035;-72
2022/07/06 11:29:34;;;;;;;8.80;2.17;;;19.10;99.90;;;;;;4951157;28;20437;-71
2022/07/06 11:32:03;;;;;;;8.25;2.10;;;19.50;99.90;;;;;;4952665;28;20043;-70
2022/07/06 11:34:31;;;;;;;7.60;2.10;;;19.60;99.90;;;;;;4964836;28;20133;-68
2022/07/06 11:36:58;;;;;;;9.52;2.10;;;19.90;99.90;;;;;;4956170;28;20042;-68
2022/07/06 11:39:28;;;;;;;9.25;1.90;;;20.00;99.90;;;;;;4955546;28;20495;-71
2022/07/06 11:41:55;;;;;;;11.68;2.17;;;20.10;99.90;;;;;;4956098;28;20039;-69
2022/07/06 11:44:21;;;;;;;7.03;2.08;;;20.10;99.90;;;;;;4955758;28;20046;-70
2022/07/06 11:46:47;;;;;;;10.50;2.00;;;19.90;99.90;;;;;;4939782;28;20584;-69
2022/07/06 11:49:14;;;;;;;7.28;1.67;;;19.80;99.90;;;;;;4949100;28;20046;-67
2022/07/06 11:51:40;;;;;;;8.35;1.85;;;19.80;99.90;;;;;;4954915;28;20043;-73
2022/07/06 11:54:15;;;;;;;3.50;1.60;;;19.80;99.90;;;;;;4947203;29;20032;-70
2022/07/06 11:56:52;;;;;;;9.18;2.13;;;19.90;99.90;;;;;;4935778;29;20422;-71
2022/07/06 11:59:23;;;;;;;5.97;1.50;;;19.90;99.90;;;;;;4936620;29;20035;-69
2022/07/06 12:01:57;;;;;;;5.50;1.80;;;19.90;99.90;;;;;;4937459;28;20050;-70
2022/07/06 12:04:24;;;;;;;4.88;1.77;;;19.70;99.90;;;;;;4955200;28;20074;-69
2022/07/06 12:06:50;;;;;;;9.25;2.08;;;19.70;99.90;;;;;;4954831;28;20039;-71
2022/07/06 12:09:16;;;;;;;8.63;2.50;;;19.80;99.90;;;;;;4955467;28;20513;-70
2022/07/06 12:11:44;;;;;;;9.30;1.98;;;19.80;99.90;;;;;;4954138;28;20092;-72
2022/07/06 12:14:15;;;;;;;8.68;2.00;;;20.00;99.90;;;;;;4955966;28;20119;-70
2022/07/06 12:16:40;;;;;;;5.63;1.55;;;20.20;99.90;;;;;;4968661;28;20039;-69
2022/07/06 12:19:07;;;;;;;6.05;1.48;;;20.30;99.90;;;;;;4952551;28;20038;-71
2022/07/06 12:21:34;;;;;;;6.25;1.58;;;20.40;99.90;;;;;;4936683;28;20039;-71
2022/07/06 12:24:00;;;;;;;9.07;1.90;;;20.20;99.90;;;;;;4951791;29;20039;-69
2022/07/06 12:26:38;;;;;;;7.70;1.70;;;19.80;99.90;;;;;;4940419;28;20042;-71
2022/07/06 12:29:05;;;;;;;7.60;1.95;;;19.50;99.90;;;;;;4958804;28;20109;-73
2022/07/06 12:31:48;;;;;;;6.43;1.92;;;19.50;99.90;;;;;;4959462;28;20559;-72
2022/07/06 12:34:18;;;;;;;9.52;1.70;;;19.60;99.90;;;;;;4959402;28;20049;-71
2022/07/06 12:36:46;;;;;;;9.55;2.17;;;19.80;99.90;;;;;;4958320;28;20512;-69
2022/07/06 12:39:17;;;;;;;8.10;2.10;;;19.80;99.90;;;;;;4953990;28;20035;-71
2022/07/06 12:41:52;;;;;;;13.00;2.40;;;19.80;99.90;;;;;;4957693;28;20410;-72
2022/07/06 12:44:22;;;;;;;10.40;2.10;;;20.00;99.90;;;;;;4946243;29;20402;-71